Terminal Aerodrome Forecast
Issued by NWS Houston/Galveston, TX

Current Version | Previous Version | Text Only | Print | Product List | Glossary Off
Versions: 1 2 3 4 5 6 7 8 9 10 11 12 13 14 15 16 17 18 19 20 21 22 23 24 25 26 27 28 29 30 31 32 33 34 35 36 37 38 39 40 41

000
FTUS44 KHGX 030303 AAA
TAFCLL
TAF AMD
KCLL 030303Z 0303/0324 VRB04KT 1SM BR OVC002
     FM030800 VRB03KT 1/2SM FG OVC001
     FM031600 17010KT 4SM BR OVC006
     FM031800 18011G21KT P6SM BKN008 OVC025
     FM032100 18010KT P6SM SCT015 OVC025=

USA.gov is the U.S. government's official web portal to all federal, state and local government web resources and services.